createdAt,value
2018-03-16T00:01:04.806Z,8.73
2018-03-16T00:01:43.075Z,8.75
2018-03-16T00:02:52.001Z,8.75
2018-03-16T00:03:40.107Z,8.73
2018-03-16T00:04:40.079Z,8.76
2018-03-16T00:05:40.077Z,8.73
2018-03-16T00:06:40.077Z,8.75
2018-03-16T00:07:40.093Z,8.75
2018-03-16T00:08:40.106Z,8.76
2018-03-16T00:09:40.108Z,8.75
2018-03-16T00:10:40.092Z,8.74
2018-03-16T00:11:40.096Z,8.75
2018-03-16T00:12:40.106Z,8.73
2018-03-16T00:13:40.090Z,8.77
2018-03-16T00:14:40.103Z,8.73
2018-03-16T00:15:40.121Z,8.75
2018-03-16T00:16:40.132Z,8.72
2018-03-16T00:17:40.128Z,8.71
2018-03-16T00:18:40.148Z,8.73
2018-03-16T00:19:40.177Z,8.72
2018-03-16T00:20:40.149Z,8.72
2018-03-16T00:21:40.141Z,8.72
2018-03-16T00:22:40.186Z,8.71
2018-03-16T00:23:40.155Z,8.71
2018-03-16T00:24:40.184Z,8.71
2018-03-16T00:25:40.653Z,8.72
2018-03-16T00:26:40.163Z,8.71
2018-03-16T00:27:40.134Z,8.68
2018-03-16T00:28:40.366Z,8.71
2018-03-16T00:29:40.170Z,8.7
2018-03-16T00:30:40.167Z,8.71
2018-03-16T00:31:40.162Z,8.72
2018-03-16T00:32:40.176Z,8.71
2018-03-16T00:33:40.212Z,8.71
2018-03-16T00:34:40.172Z,8.72
2018-03-16T00:35:40.186Z,8.69
2018-03-16T00:36:40.199Z,8.67
2018-03-16T00:37:40.195Z,8.67
2018-03-16T00:38:40.218Z,8.68
2018-03-16T00:39:40.193Z,8.69
2018-03-16T00:40:40.198Z,8.68
2018-03-16T00:41:40.244Z,8.71
2018-03-16T00:42:40.253Z,8.7
2018-03-16T00:43:40.247Z,8.72
2018-03-16T00:44:40.237Z,8.71
2018-03-16T00:45:40.213Z,8.71
2018-03-16T00:46:40.243Z,8.7
2018-03-16T00:47:40.221Z,8.69
2018-03-16T00:48:40.251Z,8.71
2018-03-16T00:49:40.252Z,8.7
2018-03-16T00:50:40.247Z,8.71
2018-03-16T00:51:40.240Z,8.69
2018-03-16T00:52:40.247Z,8.7
2018-03-16T00:53:40.365Z,8.69
2018-03-16T00:54:40.248Z,8.67
2018-03-16T00:55:40.257Z,8.69
2018-03-16T00:56:40.246Z,8.66
2018-03-16T00:57:40.295Z,8.66
2018-03-16T00:58:40.405Z,8.66
2018-03-16T00:59:40.268Z,8.65
2018-03-16T01:00:40.247Z,8.65
2018-03-16T01:01:40.240Z,8.64
2018-03-16T01:02:40.254Z,8.65
2018-03-16T01:03:40.299Z,8.61
2018-03-16T01:04:40.264Z,8.61
2018-03-16T01:05:40.295Z,8.6
2018-03-16T01:06:40.293Z,8.59
2018-03-16T01:07:40.285Z,8.57
2018-03-16T01:08:40.293Z,8.56
2018-03-16T01:09:40.279Z,8.56
2018-03-16T01:10:40.297Z,8.55
2018-03-16T01:11:40.312Z,8.54
2018-03-16T01:12:40.307Z,8.55
2018-03-16T01:13:40.291Z,8.55
2018-03-16T01:14:40.335Z,8.55
2018-03-16T01:15:40.318Z,8.54
2018-03-16T01:16:40.378Z,8.54
2018-03-16T01:17:40.332Z,8.54
2018-03-16T01:18:40.350Z,8.54
2018-03-16T01:19:40.343Z,8.55
2018-03-16T01:20:40.347Z,8.54
2018-03-16T01:21:40.390Z,8.55
2018-03-16T01:22:40.354Z,8.55
2018-03-16T01:23:40.372Z,8.55
2018-03-16T01:24:40.412Z,8.55
2018-03-16T01:25:40.371Z,8.54
2018-03-16T01:26:40.360Z,8.54
2018-03-16T01:27:40.383Z,8.53
2018-03-16T01:28:40.375Z,8.53
2018-03-16T01:29:40.408Z,8.52
2018-03-16T01:30:40.404Z,8.53
2018-03-16T01:31:40.394Z,8.52
2018-03-16T01:32:40.398Z,8.53
2018-03-16T01:33:40.394Z,8.53
2018-03-16T01:34:40.422Z,8.53
2018-03-16T01:35:40.426Z,8.52
2018-03-16T01:36:40.396Z,8.52
2018-03-16T01:37:40.487Z,8.52
2018-03-16T01:38:40.410Z,8.52
2018-03-16T01:39:40.431Z,8.52
2018-03-16T01:40:40.418Z,8.53
2018-03-16T01:41:40.417Z,8.53
2018-03-16T01:42:40.416Z,8.51
2018-03-16T01:43:40.442Z,8.52
2018-03-16T01:44:40.452Z,8.53
2018-03-16T01:45:40.471Z,8.51
2018-03-16T01:46:40.432Z,8.53
2018-03-16T01:47:40.451Z,8.5
2018-03-16T01:48:40.439Z,8.52
2018-03-16T01:49:40.459Z,8.49
2018-03-16T01:50:40.473Z,8.51
2018-03-16T01:51:40.447Z,8.51
2018-03-16T01:52:40.485Z,8.49
2018-03-16T01:53:40.442Z,8.48
2018-03-16T01:54:40.453Z,8.47
2018-03-16T01:55:40.455Z,8.47
2018-03-16T01:56:40.470Z,8.44
2018-03-16T01:57:40.467Z,8.43
2018-03-16T01:58:40.533Z,8.46
2018-03-16T01:59:40.475Z,8.42
2018-03-16T02:00:40.497Z,8.44
2018-03-16T02:01:40.464Z,8.45
2018-03-16T02:02:40.473Z,8.45
2018-03-16T02:03:40.458Z,8.43
2018-03-16T02:04:40.486Z,8.44
2018-03-16T02:05:40.474Z,8.46
2018-03-16T02:06:40.486Z,8.44
2018-03-16T02:07:40.494Z,8.42
2018-03-16T02:08:40.516Z,8.42
2018-03-16T02:09:40.501Z,8.42
2018-03-16T02:10:40.500Z,8.37
2018-03-16T02:11:40.577Z,8.36
2018-03-16T02:12:40.507Z,8.36
2018-03-16T02:13:40.510Z,8.36
2018-03-16T02:14:40.518Z,8.36
2018-03-16T02:15:40.544Z,8.32
2018-03-16T02:16:40.517Z,8.35
2018-03-16T02:17:40.520Z,8.32
2018-03-16T02:18:40.509Z,8.32
2018-03-16T02:19:40.524Z,8.34
2018-03-16T02:20:40.548Z,8.31
2018-03-16T02:21:40.546Z,8.33
2018-03-16T02:22:40.549Z,8.3
2018-03-16T02:23:40.536Z,8.31
2018-03-16T02:24:40.571Z,8.31
2018-03-16T02:25:40.560Z,8.31
2018-03-16T02:26:40.545Z,8.32
2018-03-16T02:27:40.550Z,8.3
2018-03-16T02:28:40.563Z,8.3
2018-03-16T02:29:40.551Z,8.31
2018-03-16T02:30:40.642Z,8.33
2018-03-16T02:31:40.569Z,8.3
2018-03-16T02:32:40.580Z,8.3
2018-03-16T02:33:40.620Z,8.33
2018-03-16T02:34:40.587Z,8.32
2018-03-16T02:35:40.643Z,8.33
2018-03-16T02:36:40.615Z,8.31
2018-03-16T02:37:40.614Z,8.33
2018-03-16T02:38:40.644Z,8.33
2018-03-16T02:39:40.588Z,8.33
2018-03-16T02:40:40.665Z,8.33
2018-03-16T02:41:40.610Z,8.3
2018-03-16T02:42:40.632Z,8.32
2018-03-16T02:43:40.614Z,8.31
2018-03-16T02:44:40.625Z,8.32
2018-03-16T02:45:40.657Z,8.3
2018-03-16T02:46:40.610Z,8.3
2018-03-16T02:47:40.611Z,8.31
2018-03-16T02:48:40.631Z,8.29
2018-03-16T02:49:40.608Z,8.28
2018-03-16T02:50:40.674Z,8.29
2018-03-16T02:51:40.667Z,8.27
2018-03-16T02:52:40.648Z,8.27
2018-03-16T02:53:40.702Z,8.28
2018-03-16T02:54:40.634Z,8.25
2018-03-16T02:55:40.665Z,8.25
2018-03-16T02:56:40.631Z,8.27
2018-03-16T02:57:40.641Z,8.26
2018-03-16T02:58:40.719Z,8.26
2018-03-16T02:59:40.687Z,8.25
2018-03-16T03:00:40.687Z,8.25
2018-03-16T03:01:40.693Z,8.27
2018-03-16T03:02:40.692Z,8.24
2018-03-16T03:03:40.698Z,8.26
2018-03-16T03:04:40.696Z,8.25
2018-03-16T03:05:40.697Z,8.26
2018-03-16T03:06:40.755Z,8.25
2018-03-16T03:07:40.710Z,8.23
2018-03-16T03:08:40.729Z,8.23
2018-03-16T03:09:40.716Z,8.23
2018-03-16T03:10:40.729Z,8.21
2018-03-16T03:11:40.724Z,8.19
2018-03-16T03:12:40.706Z,8.21
2018-03-16T03:13:40.720Z,8.18
2018-03-16T03:14:40.685Z,8.19
2018-03-16T03:15:40.780Z,8.18
2018-03-16T03:16:40.719Z,8.17
2018-03-16T03:17:40.716Z,8.18
2018-03-16T03:18:40.783Z,8.17
2018-03-16T03:19:40.710Z,8.19
2018-03-16T03:20:40.748Z,8.18
2018-03-16T03:21:40.949Z,8.17
2018-03-16T03:22:40.737Z,8.18
2018-03-16T03:23:40.742Z,8.17
2018-03-16T03:24:40.742Z,8.18
2018-03-16T03:25:40.775Z,8.18
2018-03-16T03:26:40.780Z,8.2
2018-03-16T03:27:40.729Z,8.16
2018-03-16T03:28:40.741Z,8.17
2018-03-16T03:29:40.732Z,8.17
2018-03-16T03:30:40.773Z,8.16
2018-03-16T03:31:40.774Z,8.17
2018-03-16T03:32:40.770Z,8.17
2018-03-16T03:33:40.753Z,8.18
2018-03-16T03:34:40.760Z,8.17
2018-03-16T03:35:40.762Z,8.18
2018-03-16T03:36:40.776Z,8.17
2018-03-16T03:37:40.780Z,8.19
2018-03-16T03:38:40.779Z,8.17
2018-03-16T03:39:40.815Z,8.17
2018-03-16T03:40:40.780Z,8.17
2018-03-16T03:41:40.845Z,8.17
2018-03-16T03:42:40.779Z,8.16
2018-03-16T03:43:40.794Z,8.16
2018-03-16T03:44:40.802Z,8.16
2018-03-16T03:45:40.806Z,8.16
2018-03-16T03:46:40.806Z,8.15
2018-03-16T03:47:40.812Z,8.16
2018-03-16T03:48:40.828Z,8.14
2018-03-16T03:49:40.806Z,8.16
2018-03-16T03:50:40.829Z,8.14
2018-03-16T03:51:40.837Z,8.14
2018-03-16T03:52:40.832Z,8.12
2018-03-16T03:53:40.839Z,8.1
2018-03-16T03:54:40.828Z,8.1
2018-03-16T03:55:40.817Z,8.1
2018-03-16T03:56:40.829Z,8.09
2018-03-16T03:57:40.823Z,8.06
2018-03-16T03:58:41.217Z,8.07
2018-03-16T03:59:40.904Z,8.06
2018-03-16T04:00:40.846Z,8.06
2018-03-16T04:01:40.840Z,8.06
2018-03-16T04:02:41.002Z,8.06
2018-03-16T04:03:40.855Z,8.06
2018-03-16T04:04:40.857Z,8.05
2018-03-16T04:05:40.866Z,8.06
2018-03-16T04:06:40.858Z,8.05
2018-03-16T04:07:40.891Z,8.05
2018-03-16T04:08:40.904Z,8.04
2018-03-16T04:09:40.933Z,8.04
2018-03-16T04:10:40.867Z,8.03
2018-03-16T04:11:40.871Z,8.04
2018-03-16T04:12:40.884Z,8.01
2018-03-16T04:13:40.868Z,8.01
2018-03-16T04:14:40.856Z,8.03
2018-03-16T04:15:40.868Z,8
2018-03-16T04:16:40.876Z,7.99
2018-03-16T04:17:40.883Z,8
2018-03-16T04:18:40.911Z,7.99
2018-03-16T04:19:40.897Z,7.99
2018-03-16T04:20:40.867Z,7.98
2018-03-16T04:21:40.891Z,7.98
2018-03-16T04:22:40.873Z,7.97
2018-03-16T04:23:40.869Z,7.99
2018-03-16T04:24:40.934Z,7.99
2018-03-16T04:25:40.896Z,7.98
2018-03-16T04:26:40.881Z,7.98
2018-03-16T04:27:40.907Z,7.96
2018-03-16T04:28:40.903Z,7.98
2018-03-16T04:29:41.007Z,7.98
2018-03-16T04:30:40.916Z,7.97
2018-03-16T04:31:40.929Z,7.96
2018-03-16T04:32:40.922Z,7.98
2018-03-16T04:33:40.929Z,7.97
2018-03-16T04:34:40.959Z,7.97
2018-03-16T04:35:40.932Z,7.97
2018-03-16T04:36:40.933Z,7.97
2018-03-16T04:37:40.961Z,8.01
2018-03-16T04:38:40.952Z,7.98
2018-03-16T04:39:40.949Z,7.98
2018-03-16T04:40:40.952Z,7.98
2018-03-16T04:41:41.117Z,7.97
2018-03-16T04:42:40.967Z,7.97
2018-03-16T04:43:40.969Z,7.94
2018-03-16T04:44:40.975Z,7.96
2018-03-16T04:45:40.985Z,7.94
2018-03-16T04:46:41.024Z,7.93
2018-03-16T04:47:41.008Z,7.92
2018-03-16T04:48:41.004Z,7.92
2018-03-16T04:49:40.979Z,7.9
2018-03-16T04:50:40.993Z,7.9
2018-03-16T04:51:41.013Z,7.91
2018-03-16T04:52:40.999Z,7.92
2018-03-16T04:53:41.005Z,7.92
2018-03-16T04:54:41.041Z,7.93
2018-03-16T04:55:40.996Z,7.96
2018-03-16T04:56:41.045Z,7.95
2018-03-16T04:57:41.034Z,7.92
2018-03-16T04:58:41.023Z,7.95
2018-03-16T04:59:41.029Z,7.93
2018-03-16T05:00:41.019Z,7.95
2018-03-16T05:01:41.063Z,7.94
2018-03-16T05:02:41.071Z,7.93
2018-03-16T05:03:41.066Z,7.96
2018-03-16T05:04:41.015Z,7.94
2018-03-16T05:05:41.041Z,7.96
2018-03-16T05:06:41.025Z,7.97
2018-03-16T05:07:41.112Z,7.96
2018-03-16T05:08:41.112Z,7.96
2018-03-16T05:09:41.080Z,7.96
2018-03-16T05:10:41.056Z,7.96
2018-03-16T05:11:41.072Z,7.94
2018-03-16T05:12:41.084Z,7.96
2018-03-16T05:13:41.086Z,7.93
2018-03-16T05:14:41.190Z,7.95
2018-03-16T05:15:41.704Z,7.95
2018-03-16T05:16:41.092Z,7.95
2018-03-16T05:17:41.107Z,7.93
2018-03-16T05:18:41.180Z,7.92
2018-03-16T05:19:41.087Z,7.92
2018-03-16T05:20:41.115Z,7.92
2018-03-16T05:21:41.120Z,7.92
2018-03-16T05:22:41.112Z,7.93
2018-03-16T05:23:41.148Z,7.92
2018-03-16T05:24:41.335Z,7.94
2018-03-16T05:25:41.970Z,7.94
2018-03-16T05:26:41.148Z,7.94
2018-03-16T05:27:41.162Z,7.96
2018-03-16T05:28:41.197Z,7.95
2018-03-16T05:29:41.161Z,7.96
2018-03-16T05:30:41.276Z,7.97
2018-03-16T05:31:41.168Z,7.96
2018-03-16T05:32:41.146Z,7.96
2018-03-16T05:33:41.151Z,7.97
2018-03-16T05:34:41.147Z,7.97
2018-03-16T05:35:41.149Z,7.96
2018-03-16T05:36:41.417Z,7.94
2018-03-16T05:37:41.190Z,7.99
2018-03-16T05:38:41.178Z,7.94
2018-03-16T05:39:41.200Z,7.96
2018-03-16T05:40:41.528Z,7.96
2018-03-16T05:41:41.211Z,7.96
2018-03-16T05:42:41.203Z,7.97
2018-03-16T05:43:41.173Z,7.95
2018-03-16T05:44:41.184Z,7.96
2018-03-16T05:45:41.206Z,7.97
2018-03-16T05:46:41.191Z,7.93
2018-03-16T05:47:41.195Z,7.9
2018-03-16T05:48:41.193Z,7.87
2018-03-16T05:49:41.210Z,7.89
2018-03-16T05:50:41.222Z,7.86
2018-03-16T05:51:41.210Z,7.85
2018-03-16T05:52:41.238Z,7.82
2018-03-16T05:53:41.292Z,7.84
2018-03-16T05:54:41.222Z,7.85
2018-03-16T05:55:41.217Z,7.83
2018-03-16T05:56:41.272Z,7.83
2018-03-16T05:57:41.413Z,7.84
2018-03-16T05:58:41.296Z,7.85
2018-03-16T05:59:41.222Z,7.85
2018-03-16T06:00:41.595Z,7.85
2018-03-16T06:01:41.238Z,7.86
2018-03-16T06:02:41.263Z,7.86
2018-03-16T06:03:41.298Z,7.86
2018-03-16T06:04:41.259Z,7.87
2018-03-16T06:05:41.266Z,7.87
2018-03-16T06:06:41.277Z,7.87
2018-03-16T06:07:41.348Z,7.9
2018-03-16T06:08:41.280Z,7.85
2018-03-16T06:09:41.266Z,7.85
2018-03-16T06:10:41.262Z,7.84
2018-03-16T06:11:41.292Z,7.86
2018-03-16T06:12:41.302Z,7.88
2018-03-16T06:13:41.291Z,7.86
2018-03-16T06:14:41.269Z,7.87
2018-03-16T06:15:41.277Z,7.87
2018-03-16T06:16:41.299Z,7.89
2018-03-16T06:17:41.338Z,7.86
2018-03-16T06:18:41.735Z,7.87
2018-03-16T06:19:41.301Z,7.87
2018-03-16T06:20:41.280Z,7.89
2018-03-16T06:21:41.290Z,7.89
2018-03-16T06:22:41.305Z,7.91
2018-03-16T06:23:41.385Z,7.91
2018-03-16T06:24:41.382Z,7.92
2018-03-16T06:25:41.325Z,7.95
2018-03-16T06:26:41.326Z,7.92
2018-03-16T06:27:41.317Z,7.91
2018-03-16T06:28:41.346Z,7.91
2018-03-16T06:29:41.334Z,7.9
2018-03-16T06:30:41.350Z,7.89
2018-03-16T06:31:41.326Z,7.88
2018-03-16T06:32:41.344Z,7.91
2018-03-16T06:33:41.337Z,7.92
2018-03-16T06:34:41.381Z,7.92
2018-03-16T06:35:41.351Z,7.91
2018-03-16T06:36:41.363Z,7.91
2018-03-16T06:37:41.353Z,7.91
2018-03-16T06:38:41.366Z,7.91
2018-03-16T06:39:41.419Z,7.9
2018-03-16T06:40:41.380Z,7.89
2018-03-16T06:41:41.404Z,7.88
2018-03-16T06:42:41.447Z,7.89
2018-03-16T06:43:41.382Z,7.87
2018-03-16T06:44:42.957Z,7.88
2018-03-16T06:45:41.427Z,7.87
2018-03-16T06:46:41.422Z,7.9
2018-03-16T06:47:41.426Z,7.91
2018-03-16T06:48:41.388Z,7.91
2018-03-16T06:49:41.393Z,7.88
2018-03-16T06:50:41.393Z,7.88
2018-03-16T06:51:41.520Z,7.91
2018-03-16T06:52:41.413Z,7.92
2018-03-16T06:53:41.463Z,7.91
2018-03-16T06:54:41.428Z,7.91
2018-03-16T06:55:41.490Z,7.92
2018-03-16T06:56:41.464Z,7.92
2018-03-16T06:57:41.433Z,7.92
2018-03-16T06:58:41.450Z,7.95
2018-03-16T06:59:41.424Z,7.94
2018-03-16T07:00:41.430Z,7.96
2018-03-16T07:01:41.421Z,7.94
2018-03-16T07:02:41.450Z,7.95
2018-03-16T07:03:41.467Z,7.92
2018-03-16T07:04:41.453Z,7.96
2018-03-16T07:05:41.490Z,7.96
2018-03-16T07:06:41.439Z,7.96
2018-03-16T07:07:41.515Z,7.95
2018-03-16T07:08:41.482Z,7.96
2018-03-16T07:09:41.462Z,7.97
2018-03-16T07:10:41.503Z,7.95
2018-03-16T07:11:41.494Z,7.98
2018-03-16T07:12:41.624Z,8
2018-03-16T07:13:41.471Z,7.97
2018-03-16T07:14:41.497Z,7.99
2018-03-16T07:15:41.499Z,7.98
2018-03-16T07:16:41.470Z,7.98
2018-03-16T07:17:41.489Z,7.98
2018-03-16T07:18:41.474Z,7.98
2018-03-16T07:19:41.599Z,7.99
2018-03-16T07:20:41.529Z,7.96
2018-03-16T07:21:41.475Z,7.98
2018-03-16T07:22:41.525Z,8
2018-03-16T07:23:41.573Z,8.02
2018-03-16T07:24:41.524Z,8.02
2018-03-16T07:25:41.532Z,8.03
2018-03-16T07:26:41.514Z,8
2018-03-16T07:27:41.522Z,7.99
2018-03-16T07:28:41.638Z,8.02
2018-03-16T07:29:41.744Z,8.03
2018-03-16T07:30:41.603Z,8.01
2018-03-16T07:31:41.525Z,8.04
2018-03-16T07:32:41.545Z,7.99
2018-03-16T07:33:41.555Z,8.02
2018-03-16T07:34:41.533Z,8.01
2018-03-16T07:35:41.532Z,8.02
2018-03-16T07:36:41.569Z,8.02
2018-03-16T07:37:41.547Z,8.03
2018-03-16T07:38:41.571Z,8.03
2018-03-16T07:39:41.552Z,8
2018-03-16T07:40:41.556Z,8.01
2018-03-16T07:41:41.582Z,8.03
2018-03-16T07:42:41.567Z,8.04
2018-03-16T07:43:41.578Z,8.04
2018-03-16T07:44:41.569Z,8.04
2018-03-16T07:45:41.588Z,8.04
2018-03-16T07:46:41.657Z,8.03
2018-03-16T07:47:41.582Z,8.04
2018-03-16T07:48:41.588Z,8.04
2018-03-16T07:49:41.586Z,8.04
2018-03-16T07:50:41.648Z,8.03
2018-03-16T07:51:41.607Z,8.05
2018-03-16T07:52:42.302Z,8.04
2018-03-16T07:53:41.598Z,8.04
2018-03-16T07:54:41.592Z,8.05
2018-03-16T07:55:41.836Z,8.04
2018-03-16T07:56:41.628Z,8.06
2018-03-16T07:57:41.594Z,8.05
2018-03-16T07:58:41.604Z,8.08
2018-03-16T07:59:41.628Z,8.06
2018-03-16T08:00:41.620Z,8.03
2018-03-16T08:01:41.638Z,8.01
2018-03-16T08:02:41.619Z,8.03
2018-03-16T08:03:41.643Z,8.04
2018-03-16T08:04:41.636Z,8.01
2018-03-16T08:05:41.649Z,8.02
2018-03-16T08:06:41.675Z,8.02
2018-03-16T08:07:41.625Z,7.99
2018-03-16T08:08:41.899Z,8
2018-03-16T08:09:41.657Z,8.03
2018-03-16T08:10:41.666Z,8
2018-03-16T08:11:41.674Z,8.02
2018-03-16T08:12:41.684Z,8.01
2018-03-16T08:13:41.651Z,8.02
2018-03-16T08:14:41.662Z,8.03
2018-03-16T08:15:41.648Z,8
2018-03-16T08:16:41.702Z,8.01
2018-03-16T08:17:41.661Z,7.98
2018-03-16T08:18:41.696Z,8.01
2018-03-16T08:19:41.664Z,8
2018-03-16T08:20:41.706Z,7.99
2018-03-16T08:21:41.695Z,8
2018-03-16T08:22:41.698Z,7.99
2018-03-16T08:23:41.717Z,7.98
2018-03-16T08:24:41.697Z,7.99
2018-03-16T08:25:41.676Z,8
2018-03-16T08:26:41.723Z,7.99
2018-03-16T08:27:41.702Z,8
2018-03-16T08:28:41.720Z,7.98
2018-03-16T08:29:41.700Z,7.98
2018-03-16T08:30:41.697Z,7.98
2018-03-16T08:31:41.718Z,7.97
2018-03-16T08:32:41.715Z,7.96
2018-03-16T08:33:41.730Z,7.93
2018-03-16T08:34:41.737Z,7.97
2018-03-16T08:35:41.709Z,7.97
2018-03-16T08:36:41.744Z,7.97
2018-03-16T08:37:41.731Z,7.98
2018-03-16T08:38:41.742Z,7.98
2018-03-16T08:39:41.715Z,8
2018-03-16T08:40:41.740Z,7.99
2018-03-16T08:41:41.726Z,8.01
2018-03-16T08:42:41.751Z,8
2018-03-16T08:43:41.994Z,8.02
2018-03-16T08:44:41.717Z,8.05
2018-03-16T08:45:41.736Z,8.04
2018-03-16T08:46:41.757Z,8.08
2018-03-16T08:47:41.738Z,8.06
2018-03-16T08:48:41.784Z,8.08
2018-03-16T08:49:41.748Z,8.06
2018-03-16T08:50:41.761Z,8.1
2018-03-16T08:51:41.796Z,8.1
2018-03-16T08:52:41.782Z,8.1
2018-03-16T08:53:41.810Z,8.1
2018-03-16T08:54:41.767Z,8.09
2018-03-16T08:55:41.793Z,8.1
2018-03-16T08:56:41.789Z,8.11
2018-03-16T08:57:41.792Z,8.09
2018-03-16T08:58:41.823Z,8.08
2018-03-16T08:59:42.059Z,8.09
2018-03-16T09:00:41.808Z,8.09
2018-03-16T09:01:41.797Z,8.1
2018-03-16T09:02:41.806Z,8.1
2018-03-16T09:03:41.831Z,8.11
2018-03-16T09:04:41.813Z,8.12
2018-03-16T09:05:41.809Z,8.13
2018-03-16T09:06:41.818Z,8.15
2018-03-16T09:07:41.822Z,8.1
2018-03-16T09:08:41.858Z,8.11
2018-03-16T09:09:41.888Z,8.13
2018-03-16T09:10:41.833Z,8.16
2018-03-16T09:11:41.838Z,8.14
2018-03-16T09:12:42.098Z,8.17
2018-03-16T09:13:41.836Z,8.16
2018-03-16T09:14:41.877Z,8.19
2018-03-16T09:15:41.851Z,8.18
2018-03-16T09:16:41.836Z,8.17
2018-03-16T09:17:41.851Z,8.18
2018-03-16T09:18:41.890Z,8.21
2018-03-16T09:19:41.887Z,8.19
2018-03-16T09:20:41.852Z,8.22
2018-03-16T09:21:41.851Z,8.16
2018-03-16T09:22:41.865Z,8.16
2018-03-16T09:23:41.872Z,8.11
2018-03-16T09:24:41.901Z,8.16
2018-03-16T09:25:41.886Z,8.17
2018-03-16T09:26:41.885Z,8.21
2018-03-16T09:27:41.871Z,8.21
2018-03-16T09:28:41.887Z,8.19
2018-03-16T09:29:42.280Z,8.22
2018-03-16T09:30:41.904Z,8.22
2018-03-16T09:31:41.918Z,8.23
2018-03-16T09:32:42.142Z,8.23
2018-03-16T09:33:41.894Z,8.24
2018-03-16T09:34:41.926Z,8.25
2018-03-16T09:35:41.996Z,8.24
2018-03-16T09:36:41.900Z,8.26
2018-03-16T09:37:41.917Z,8.25
2018-03-16T09:38:41.912Z,8.28
2018-03-16T09:39:41.937Z,8.28
2018-03-16T09:40:41.929Z,8.29
2018-03-16T09:41:41.942Z,8.3
2018-03-16T09:42:41.917Z,8.3
2018-03-16T09:43:41.970Z,8.32
2018-03-16T09:44:41.948Z,8.3
2018-03-16T09:45:41.977Z,8.29
2018-03-16T09:46:41.933Z,8.3
2018-03-16T09:47:42.007Z,8.32
2018-03-16T09:48:41.959Z,8.31
2018-03-16T09:49:41.995Z,8.32
2018-03-16T09:50:42.213Z,8.33
2018-03-16T09:51:41.965Z,8.34
2018-03-16T09:52:41.978Z,8.31
2018-03-16T09:53:41.974Z,8.34
2018-03-16T09:54:41.993Z,8.34
2018-03-16T09:55:41.967Z,8.34
2018-03-16T09:56:42.260Z,8.31
2018-03-16T09:57:42.000Z,8.34
2018-03-16T09:58:41.998Z,8.35
2018-03-16T09:59:42.011Z,8.35
2018-03-16T10:00:42.007Z,8.31
2018-03-16T10:01:42.021Z,8.32
2018-03-16T10:02:42.004Z,8.34
2018-03-16T10:03:42.033Z,8.35
2018-03-16T10:04:42.008Z,8.34
2018-03-16T10:05:42.011Z,8.32
2018-03-16T10:06:42.020Z,8.35
2018-03-16T10:07:42.045Z,8.35
2018-03-16T10:08:42.001Z,8.35
2018-03-16T10:09:42.041Z,8.35
2018-03-16T10:10:42.022Z,8.36
2018-03-16T10:11:42.029Z,8.36
2018-03-16T10:12:42.020Z,8.37
2018-03-16T10:13:42.029Z,8.37
2018-03-16T10:14:42.024Z,8.39
2018-03-16T10:15:42.044Z,8.41
2018-03-16T10:16:42.071Z,8.41
2018-03-16T10:17:42.310Z,8.42
2018-03-16T10:18:42.046Z,8.45
2018-03-16T10:19:42.360Z,8.43
2018-03-16T10:20:42.078Z,8.47
2018-03-16T10:21:42.055Z,8.48
2018-03-16T10:22:42.053Z,8.48
2018-03-16T10:23:42.062Z,8.52
2018-03-16T10:24:42.063Z,8.53
2018-03-16T10:25:42.244Z,8.54
2018-03-16T10:26:42.054Z,8.59
2018-03-16T10:27:42.106Z,8.62
2018-03-16T10:28:42.047Z,8.61
2018-03-16T10:29:42.062Z,8.64
2018-03-16T10:30:42.055Z,8.66
2018-03-16T10:31:42.090Z,8.68
2018-03-16T10:32:42.076Z,8.74
2018-03-16T10:33:42.086Z,8.74
2018-03-16T10:34:42.086Z,8.79
2018-03-16T10:35:42.096Z,8.82
2018-03-16T10:36:42.090Z,8.84
2018-03-16T10:37:42.158Z,8.86
2018-03-16T10:38:42.097Z,8.87
2018-03-16T10:39:42.165Z,8.92
2018-03-16T10:40:42.104Z,8.96
2018-03-16T10:41:42.111Z,8.98
2018-03-16T10:42:42.253Z,9.01
2018-03-16T10:43:42.088Z,9.02
2018-03-16T10:44:42.094Z,9.08
2018-03-16T10:45:42.406Z,9.08
2018-03-16T10:46:42.122Z,9.09
2018-03-16T10:47:42.116Z,9.11
2018-03-16T10:48:42.106Z,9.13
2018-03-16T10:49:42.116Z,9.13
2018-03-16T10:50:42.135Z,9.16
2018-03-16T10:51:42.123Z,9.19
2018-03-16T10:52:42.128Z,9.2
2018-03-16T10:53:42.120Z,9.21
2018-03-16T10:54:42.121Z,9.21
2018-03-16T10:55:42.242Z,9.21
2018-03-16T10:56:42.151Z,9.22
2018-03-16T10:57:42.200Z,9.28
2018-03-16T10:58:42.137Z,9.28
2018-03-16T10:59:42.173Z,9.33
2018-03-16T11:00:42.259Z,9.39
2018-03-16T11:01:42.157Z,9.37
2018-03-16T11:02:42.211Z,9.4
2018-03-16T11:03:42.177Z,9.41
2018-03-16T11:04:42.182Z,9.41
2018-03-16T11:05:42.172Z,9.43
2018-03-16T11:06:42.405Z,9.46
2018-03-16T11:07:42.191Z,9.46
2018-03-16T11:08:42.221Z,9.42
2018-03-16T11:09:42.182Z,9.44
2018-03-16T11:10:42.192Z,9.46
2018-03-16T11:11:42.492Z,9.45
2018-03-16T11:12:42.180Z,9.46
2018-03-16T11:13:42.198Z,9.45
2018-03-16T11:14:42.207Z,9.46
2018-03-16T11:15:42.183Z,9.45
2018-03-16T11:16:42.225Z,9.46
2018-03-16T11:17:42.213Z,9.44
2018-03-16T11:18:42.189Z,9.47
2018-03-16T11:19:42.195Z,9.47
2018-03-16T11:20:42.203Z,9.48
2018-03-16T11:21:42.191Z,9.47
2018-03-16T11:22:42.190Z,9.47
2018-03-16T11:23:42.215Z,9.51
2018-03-16T11:24:42.259Z,9.51
2018-03-16T11:25:42.212Z,9.5
2018-03-16T11:26:42.234Z,9.53
2018-03-16T11:27:42.233Z,9.52
2018-03-16T11:28:42.207Z,9.54
2018-03-16T11:29:42.350Z,9.55
2018-03-16T11:30:42.251Z,9.6
2018-03-16T11:31:42.244Z,9.6
2018-03-16T11:32:42.227Z,9.61
2018-03-16T11:33:42.217Z,9.62
2018-03-16T11:34:42.212Z,9.65
2018-03-16T11:35:42.251Z,9.66
2018-03-16T11:36:42.359Z,9.66
2018-03-16T11:37:42.233Z,9.66
2018-03-16T11:38:42.244Z,9.69
2018-03-16T11:39:42.231Z,9.69
2018-03-16T11:40:42.244Z,9.71
2018-03-16T11:41:42.262Z,9.69
2018-03-16T11:42:42.284Z,9.71
2018-03-16T11:43:42.259Z,9.74
2018-03-16T11:44:42.283Z,9.75
2018-03-16T11:45:42.286Z,9.78
2018-03-16T11:46:42.308Z,9.8
2018-03-16T11:47:42.283Z,9.8
2018-03-16T11:48:42.283Z,9.81
2018-03-16T11:49:42.288Z,9.83
2018-03-16T11:50:42.334Z,9.86
2018-03-16T11:51:42.307Z,9.92
2018-03-16T11:52:42.354Z,9.95
2018-03-16T11:53:42.422Z,9.93
2018-03-16T11:54:42.300Z,9.95
2018-03-16T11:55:42.357Z,9.93
2018-03-16T11:56:42.342Z,9.97
2018-03-16T11:57:42.302Z,9.97
2018-03-16T11:58:42.309Z,9.97
2018-03-16T11:59:42.708Z,10.02
2018-03-16T12:00:42.317Z,10.04
2018-03-16T12:01:42.341Z,10.06
2018-03-16T12:02:42.324Z,10.04
2018-03-16T12:03:42.347Z,10.04
2018-03-16T12:04:42.322Z,10.07
2018-03-16T12:05:43.279Z,10.04
2018-03-16T12:06:44.145Z,10.05
2018-03-16T12:07:42.351Z,10.03
2018-03-16T12:08:42.339Z,10.04
2018-03-16T12:09:42.343Z,10.04
2018-03-16T12:10:42.687Z,10.05
2018-03-16T12:11:42.351Z,10.08
2018-03-16T12:12:42.358Z,10.08
2018-03-16T12:13:42.371Z,10.09
2018-03-16T12:14:42.367Z,10.08
2018-03-16T12:15:42.363Z,10.09
2018-03-16T12:16:42.373Z,10.14
2018-03-16T12:17:42.363Z,10.11
2018-03-16T12:18:42.384Z,10.14
2018-03-16T12:19:42.378Z,10.14
2018-03-16T12:20:42.356Z,10.16
2018-03-16T12:21:42.426Z,10.18
2018-03-16T12:22:42.413Z,10.18
2018-03-16T12:23:42.420Z,10.2
2018-03-16T12:24:42.373Z,10.21
2018-03-16T12:25:42.382Z,10.22
2018-03-16T12:26:42.544Z,10.23
2018-03-16T12:27:42.432Z,10.27
2018-03-16T12:28:50.858Z,10.31
2018-03-16T12:29:42.416Z,10.31
2018-03-16T12:30:42.511Z,10.35
2018-03-16T12:31:42.447Z,10.37
2018-03-16T12:32:42.497Z,10.46
2018-03-16T12:33:42.441Z,10.48
2018-03-16T12:34:42.503Z,10.52
2018-03-16T12:35:42.494Z,10.52
2018-03-16T12:36:42.409Z,10.55
2018-03-16T12:37:42.520Z,10.59
2018-03-16T12:38:42.557Z,10.59
2018-03-16T12:39:42.411Z,10.63
2018-03-16T12:40:42.422Z,10.66
2018-03-16T12:41:42.549Z,10.68
2018-03-16T12:42:42.535Z,10.71
2018-03-16T12:43:42.423Z,10.72
2018-03-16T12:44:42.447Z,10.77
2018-03-16T12:45:42.422Z,10.79
2018-03-16T12:46:42.686Z,10.83
2018-03-16T12:47:42.445Z,10.89
2018-03-16T12:48:42.456Z,10.9
2018-03-16T12:49:42.468Z,10.95
2018-03-16T12:50:42.445Z,11.01
2018-03-16T12:51:42.857Z,11.03
2018-03-16T12:52:42.509Z,11.08
2018-03-16T12:53:42.508Z,11.1
2018-03-16T12:54:42.458Z,11.2
2018-03-16T12:55:42.443Z,11.22
2018-03-16T12:56:42.540Z,11.34
2018-03-16T12:57:42.548Z,11.38
2018-03-16T12:58:42.545Z,11.42
2018-03-16T12:59:42.546Z,11.47
2018-03-16T13:00:42.582Z,11.53
2018-03-16T13:01:42.497Z,11.54
2018-03-16T13:02:43.661Z,11.57
2018-03-16T13:03:42.752Z,11.61
2018-03-16T13:04:42.588Z,11.61
2018-03-16T13:05:42.513Z,11.58
2018-03-16T13:06:42.569Z,11.6
2018-03-16T13:07:42.571Z,11.61
2018-03-16T13:08:42.763Z,11.61
2018-03-16T13:09:42.519Z,11.6
2018-03-16T13:10:42.544Z,11.63
2018-03-16T13:11:42.510Z,11.68
2018-03-16T13:12:42.531Z,11.71
2018-03-16T13:13:42.546Z,11.75
2018-03-16T13:14:42.563Z,11.71
2018-03-16T13:15:42.525Z,11.7
2018-03-16T13:16:42.559Z,11.72
2018-03-16T13:17:42.627Z,11.71
2018-03-16T13:18:42.572Z,11.7
2018-03-16T13:19:42.549Z,11.68